Time;durP1;ratioP1;P1;durP2;ratioP2;P2;SDS_P1;SDS_P2;PMS_P1;PMS_P2;Temp;Humidity;BMP_temperature;BMP_pressure;BME280_temperature;BME280_humidity;BME280_pressure;Samples;Min_cycle;Max_cycle;Signal;HPM_P1;HPM_P2
2021/03/29 00:02:04;;;;;;;8.82;4.70;;;9.10;99.90;;;;;;5090401;28;20043;-58
2021/03/29 00:04:29;;;;;;;11.23;5.03;;;9.10;99.90;;;;;;5090275;28;20024;-59
2021/03/29 00:06:57;;;;;;;9.40;5.55;;;9.10;99.90;;;;;;5076638;28;20070;-57
2021/03/29 00:09:24;;;;;;;9.77;4.45;;;9.10;99.90;;;;;;5065926;28;20058;-59
2021/03/29 00:11:51;;;;;;;10.63;4.90;;;9.10;99.90;;;;;;5075303;28;20027;-58
2021/03/29 00:14:17;;;;;;;10.23;4.68;;;9.10;99.90;;;;;;5079312;28;20020;-57
2021/03/29 00:16:44;;;;;;;10.60;4.65;;;9.10;99.90;;;;;;5090216;28;20157;-56
2021/03/29 00:19:10;;;;;;;13.98;5.38;;;9.20;99.90;;;;;;5077760;28;20021;-58
2021/03/29 00:21:37;;;;;;;14.75;5.22;;;9.10;99.90;;;;;;5066746;28;20035;-57
2021/03/29 00:24:04;;;;;;;10.93;4.20;;;9.10;99.90;;;;;;5069524;28;20021;-58
2021/03/29 00:26:30;;;;;;;10.82;4.45;;;9.10;99.90;;;;;;5069000;28;20264;-59
2021/03/29 00:28:56;;;;;;;6.95;3.85;;;9.20;99.90;;;;;;5068237;28;20120;-56
2021/03/29 00:31:22;;;;;;;8.23;3.95;;;9.20;99.90;;;;;;5069388;28;20087;-58
2021/03/29 00:33:49;;;;;;;10.00;4.13;;;9.10;99.90;;;;;;5069564;28;20486;-59
2021/03/29 00:36:16;;;;;;;6.63;3.58;;;9.10;99.90;;;;;;5069477;28;20020;-57
2021/03/29 00:38:42;;;;;;;5.60;3.40;;;9.20;99.90;;;;;;5069705;28;20113;-57
2021/03/29 00:41:10;;;;;;;11.10;4.40;;;9.20;99.90;;;;;;5069109;28;20432;-57
2021/03/29 00:43:40;;;;;;;10.38;4.00;;;9.20;99.90;;;;;;5068976;28;20017;-59
2021/03/29 00:46:08;;;;;;;8.15;3.10;;;9.20;99.90;;;;;;5067865;28;20044;-56
2021/03/29 00:48:35;;;;;;;6.10;2.92;;;9.20;99.90;;;;;;5069300;28;20046;-59
2021/03/29 00:51:04;;;;;;;10.02;3.55;;;9.20;99.90;;;;;;5069257;28;20496;-55
2021/03/29 00:53:30;;;;;;;5.32;2.97;;;9.20;99.90;;;;;;5069299;28;20028;-57
2021/03/29 00:55:56;;;;;;;7.53;3.33;;;9.20;99.90;;;;;;5069468;28;20035;-56
2021/03/29 00:58:24;;;;;;;9.35;3.05;;;9.20;99.90;;;;;;5068935;28;20020;-58
2021/03/29 01:01:00;;;;;;;8.27;2.92;;;9.20;99.90;;;;;;5068908;28;20043;-59
2021/03/29 01:03:33;;;;;;;9.23;3.08;;;9.20;99.90;;;;;;5068886;28;20029;-58
2021/03/29 01:06:01;;;;;;;7.07;3.45;;;9.20;99.90;;;;;;5067266;28;20035;-59
2021/03/29 01:08:28;;;;;;;6.72;2.65;;;9.20;99.90;;;;;;5068934;28;20044;-58
2021/03/29 01:10:55;;;;;;;5.90;2.50;;;9.20;99.90;;;;;;5068420;28;20021;-59
2021/03/29 01:13:22;;;;;;;6.35;2.38;;;9.20;99.90;;;;;;5069342;28;20020;-59
2021/03/29 01:15:50;;;;;;;12.32;3.50;;;9.20;99.90;;;;;;5069327;28;20017;-54
2021/03/29 01:18:18;;;;;;;8.27;2.65;;;9.20;99.90;;;;;;5068826;28;20054;-55
2021/03/29 01:21:16;;;;;;;8.00;3.40;;;9.20;99.90;;;;;;5067290;28;20056;-57
2021/03/29 01:23:43;;;;;;;9.15;2.92;;;9.20;99.90;;;;;;5068612;28;20035;-56
2021/03/29 01:26:27;;;;;;;4.53;2.63;;;9.20;99.90;;;;;;5068151;28;20048;-56
2021/03/29 01:28:53;;;;;;;6.75;2.72;;;9.10;99.90;;;;;;5068581;28;20486;-58
2021/03/29 01:31:19;;;;;;;4.90;3.25;;;9.10;99.90;;;;;;5068237;28;20024;-58
2021/03/29 01:33:45;;;;;;;7.43;2.53;;;9.10;99.90;;;;;;5068530;28;20031;-57
2021/03/29 01:36:11;;;;;;;11.85;3.53;;;9.10;99.90;;;;;;5068112;28;20017;-56
2021/03/29 01:38:38;;;;;;;6.95;2.78;;;9.10;99.90;;;;;;5068564;28;20386;-58
2021/03/29 01:41:05;;;;;;;6.30;2.90;;;9.10;99.90;;;;;;5068209;28;20115;-58
2021/03/29 01:43:31;;;;;;;5.55;2.78;;;9.20;99.90;;;;;;5068421;28;20107;-58
2021/03/29 01:45:58;;;;;;;7.18;3.55;;;9.20;99.90;;;;;;5068369;28;20028;-55
2021/03/29 01:48:25;;;;;;;3.88;3.10;;;9.20;99.90;;;;;;5066811;28;20024;-58
2021/03/29 01:50:53;;;;;;;7.13;3.17;;;9.20;99.90;;;;;;5068380;28;20047;-56
2021/03/29 01:53:20;;;;;;;6.63;3.67;;;9.20;99.90;;;;;;5068251;28;20096;-56
2021/03/29 01:55:46;;;;;;;8.57;3.47;;;9.20;99.90;;;;;;5068691;28;20509;-57
2021/03/29 01:58:12;;;;;;;8.93;3.65;;;9.20;99.90;;;;;;5068093;28;20028;-59
2021/03/29 02:00:40;;;;;;;9.07;3.60;;;9.20;99.90;;;;;;5068369;28;20639;-57
2021/03/29 02:03:12;;;;;;;7.30;3.00;;;9.30;99.90;;;;;;5067809;28;20028;-57
2021/03/29 02:05:39;;;;;;;8.32;3.13;;;9.30;99.90;;;;;;5067279;28;20562;-59
2021/03/29 02:08:05;;;;;;;5.75;3.47;;;9.30;99.90;;;;;;5066215;28;20055;-57
2021/03/29 02:10:34;;;;;;;7.85;3.45;;;9.20;99.90;;;;;;5067962;28;20020;-56
2021/03/29 02:13:06;;;;;;;5.47;3.60;;;9.20;99.90;;;;;;5066588;28;20032;-58
2021/03/29 02:15:32;;;;;;;7.95;4.15;;;9.20;99.90;;;;;;5067965;28;20009;-59
2021/03/29 02:17:59;;;;;;;10.00;3.95;;;9.20;99.90;;;;;;5068101;28;20401;-56
2021/03/29 02:20:29;;;;;;;6.90;3.75;;;9.30;99.90;;;;;;5068350;28;20036;-58
2021/03/29 02:22:55;;;;;;;10.07;3.53;;;9.20;99.90;;;;;;5067968;28;20028;-53
2021/03/29 02:25:24;;;;;;;6.50;3.60;;;9.20;99.90;;;;;;5067938;28;20029;-57
2021/03/29 02:27:51;;;;;;;6.03;3.72;;;9.20;99.90;;;;;;5067064;28;20024;-57
2021/03/29 02:30:21;;;;;;;6.95;3.38;;;9.30;99.90;;;;;;5066774;28;20031;-57
2021/03/29 02:32:48;;;;;;;6.35;3.47;;;9.30;99.90;;;;;;5069142;28;20042;-55
2021/03/29 02:35:15;;;;;;;7.60;3.95;;;9.30;99.90;;;;;;5071714;28;20025;-56
2021/03/29 02:37:46;;;;;;;13.15;4.70;;;9.30;99.90;;;;;;5072136;28;20040;-57
2021/03/29 02:40:14;;;;;;;5.57;3.55;;;9.30;99.90;;;;;;5071364;28;20031;-58
2021/03/29 02:42:40;;;;;;;6.88;4.03;;;9.30;99.90;;;;;;5071387;28;20494;-56
2021/03/29 02:45:09;;;;;;;6.85;3.58;;;9.30;99.90;;;;;;5071670;28;20025;-57
2021/03/29 02:47:43;;;;;;;7.05;3.72;;;9.30;99.90;;;;;;5070232;28;20555;-56
2021/03/29 02:50:14;;;;;;;6.50;4.07;;;9.30;99.90;;;;;;5071663;28;20668;-57
2021/03/29 02:52:43;;;;;;;8.07;3.92;;;9.30;99.90;;;;;;5070441;28;20036;-56
2021/03/29 02:55:11;;;;;;;7.93;3.72;;;9.40;99.90;;;;;;5071718;28;20029;-56
2021/03/29 02:57:38;;;;;;;7.50;3.72;;;9.40;99.90;;;;;;5072193;28;20032;-55
2021/03/29 03:00:19;;;;;;;7.75;3.65;;;9.40;99.90;;;;;;5071993;28;20021;-58
2021/03/29 03:02:46;;;;;;;10.43;4.10;;;9.40;99.90;;;;;;5071647;28;20040;-56
2021/03/29 03:05:13;;;;;;;6.18;3.53;;;9.40;99.90;;;;;;5070179;28;20032;-58
2021/03/29 03:07:40;;;;;;;5.60;3.50;;;9.30;99.90;;;;;;5071418;28;20040;-58
2021/03/29 03:10:09;;;;;;;8.32;3.80;;;9.30;99.90;;;;;;5071484;28;20603;-58
2021/03/29 03:12:35;;;;;;;9.35;4.03;;;9.40;99.90;;;;;;5070884;28;20078;-59
2021/03/29 03:15:01;;;;;;;9.70;4.40;;;9.40;99.90;;;;;;5071583;28;20432;-58
2021/03/29 03:17:26;;;;;;;10.55;3.83;;;9.40;99.90;;;;;;5071309;28;20032;-58
2021/03/29 03:19:52;;;;;;;11.35;4.88;;;9.40;99.90;;;;;;5072220;28;20035;-58
2021/03/29 03:22:18;;;;;;;7.85;3.72;;;9.40;99.90;;;;;;5074576;28;20020;-52
2021/03/29 03:24:44;;;;;;;9.85;3.65;;;9.40;99.90;;;;;;5071268;28;20522;-55
2021/03/29 03:27:10;;;;;;;7.63;3.50;;;9.40;99.90;;;;;;5070310;28;20037;-58
2021/03/29 03:29:40;;;;;;;8.70;3.75;;;9.30;99.90;;;;;;5070977;28;20024;-55
2021/03/29 03:32:14;;;;;;;7.60;3.63;;;9.40;99.90;;;;;;5070669;28;20115;-57
2021/03/29 03:34:40;;;;;;;9.05;4.53;;;9.30;99.90;;;;;;5070644;28;20016;-58
2021/03/29 03:37:10;;;;;;;7.07;3.85;;;9.40;99.90;;;;;;5069687;28;20033;-58
2021/03/29 03:39:36;;;;;;;9.63;4.25;;;9.30;99.90;;;;;;5069565;28;20619;-58
2021/03/29 03:42:05;;;;;;;9.13;3.67;;;9.30;99.90;;;;;;5070288;28;20036;-58
2021/03/29 03:44:32;;;;;;;6.55;3.92;;;9.40;99.90;;;;;;5067765;28;20098;-58
2021/03/29 03:46:58;;;;;;;8.90;4.47;;;9.30;99.90;;;;;;5070161;28;20461;-57
2021/03/29 03:49:23;;;;;;;6.75;3.72;;;9.30;99.90;;;;;;5070374;28;20104;-58
2021/03/29 03:51:50;;;;;;;7.82;4.40;;;9.30;99.90;;;;;;5069944;28;20060;-58
2021/03/29 03:54:18;;;;;;;8.52;3.80;;;9.30;99.90;;;;;;5070270;28;20029;-58
2021/03/29 03:56:45;;;;;;;12.98;5.03;;;9.30;99.90;;;;;;5070111;28;20032;-58
2021/03/29 03:59:12;;;;;;;9.02;4.45;;;9.30;99.90;;;;;;5070100;28;20060;-56
2021/03/29 04:02:01;;;;;;;10.40;3.95;;;9.30;99.90;;;;;;5069830;28;20059;-58
2021/03/29 04:04:26;;;;;;;12.05;4.55;;;9.30;99.90;;;;;;5070196;28;20062;-58
2021/03/29 04:06:52;;;;;;;10.68;4.13;;;9.30;99.90;;;;;;5068455;28;20565;-59
2021/03/29 04:09:20;;;;;;;8.60;4.18;;;9.30;99.90;;;;;;5068851;28;20107;-58
2021/03/29 04:11:50;;;;;;;7.43;4.53;;;9.20;99.90;;;;;;5069321;28;20024;-58
2021/03/29 04:14:16;;;;;;;10.88;5.05;;;9.30;99.90;;;;;;5069949;28;20017;-57
2021/03/29 04:16:42;;;;;;;10.55;4.57;;;9.30;99.90;;;;;;5069626;28;20028;-58
2021/03/29 04:19:07;;;;;;;9.15;4.50;;;9.30;99.90;;;;;;5069778;28;20067;-56
2021/03/29 04:21:34;;;;;;;6.50;4.68;;;9.30;99.90;;;;;;5068116;28;20075;-58
2021/03/29 04:23:59;;;;;;;10.55;5.63;;;9.30;99.90;;;;;;5069529;28;20027;-56
2021/03/29 04:26:25;;;;;;;10.00;4.85;;;9.30;99.90;;;;;;5069390;28;20020;-58
2021/03/29 04:28:51;;;;;;;11.85;5.05;;;9.20;99.90;;;;;;5069416;28;20107;-58
2021/03/29 04:31:16;;;;;;;10.45;5.10;;;9.20;99.90;;;;;;5069199;28;20085;-56
2021/03/29 04:33:42;;;;;;;7.82;4.82;;;9.20;99.90;;;;;;5069856;28;20031;-58
2021/03/29 04:36:07;;;;;;;9.57;4.80;;;9.10;99.90;;;;;;5067890;28;20029;-58
2021/03/29 04:38:33;;;;;;;12.35;5.18;;;9.10;99.90;;;;;;5069630;28;20742;-58
2021/03/29 04:40:59;;;;;;;10.18;5.13;;;9.10;99.90;;;;;;5069097;28;20037;-58
2021/03/29 04:43:24;;;;;;;10.10;5.00;;;9.00;99.90;;;;;;5069217;28;20021;-56
2021/03/29 04:45:50;;;;;;;9.18;5.00;;;9.00;99.90;;;;;;5069045;28;20111;-57
2021/03/29 04:48:15;;;;;;;9.13;4.85;;;9.00;99.90;;;;;;5068961;28;20478;-58
2021/03/29 04:50:41;;;;;;;12.60;4.80;;;9.00;99.90;;;;;;5069222;28;20027;-57
2021/03/29 04:53:06;;;;;;;9.48;4.70;;;9.00;99.90;;;;;;5068877;28;20028;-57
2021/03/29 04:55:32;;;;;;;7.57;4.57;;;9.00;99.90;;;;;;5068968;28;20172;-57
2021/03/29 04:57:58;;;;;;;7.60;3.92;;;9.00;99.90;;;;;;5069259;28;20104;-58
2021/03/29 05:00:23;;;;;;;7.35;4.07;;;9.00;99.90;;;;;;5069388;28;20043;-58
2021/03/29 05:02:49;;;;;;;7.53;4.65;;;9.00;99.90;;;;;;5068622;28;20028;-58
2021/03/29 05:05:15;;;;;;;10.18;4.40;;;9.00;99.90;;;;;;5068897;28;20090;-59
2021/03/29 05:07:40;;;;;;;10.95;4.85;;;9.00;99.90;;;;;;5085505;23;20056;-62
2021/03/29 05:10:10;;;;;;;7.03;3.70;;;9.00;99.90;;;;;;5066999;28;20063;-62
2021/03/29 05:12:36;;;;;;;7.65;4.40;;;9.00;99.90;;;;;;5068042;28;20031;-61
2021/03/29 05:15:03;;;;;;;6.47;4.40;;;9.00;99.90;;;;;;5068634;28;20025;-62
2021/03/29 05:17:28;;;;;;;11.05;4.65;;;9.00;99.90;;;;;;5068952;28;20119;-61
2021/03/29 05:19:54;;;;;;;11.98;4.72;;;9.00;99.90;;;;;;5068911;28;20100;-61
2021/03/29 05:22:19;;;;;;;10.35;4.15;;;9.00;99.90;;;;;;5068397;28;20112;-62
2021/03/29 05:24:45;;;;;;;8.65;4.30;;;9.00;99.90;;;;;;5068964;28;20050;-61
2021/03/29 05:27:11;;;;;;;10.13;4.15;;;9.00;99.90;;;;;;5067120;28;20024;-62
2021/03/29 05:29:42;;;;;;;10.05;4.28;;;9.10;99.90;;;;;;5068370;28;20036;-62
2021/03/29 05:32:18;;;;;;;14.07;4.78;;;9.10;99.90;;;;;;5068407;28;20027;-62
2021/03/29 05:34:47;;;;;;;9.00;4.43;;;9.10;99.90;;;;;;5068415;28;20028;-61
2021/03/29 05:37:13;;;;;;;8.15;4.03;;;9.20;99.90;;;;;;5068502;28;20024;-61
2021/03/29 05:39:39;;;;;;;10.90;4.20;;;9.20;99.90;;;;;;5068221;28;20024;-62
2021/03/29 05:42:08;;;;;;;7.15;4.03;;;9.20;99.90;;;;;;5068450;28;20025;-62
2021/03/29 05:44:35;;;;;;;6.00;3.47;;;9.20;99.90;;;;;;5060951;28;20090;-61
2021/03/29 05:47:01;;;;;;;13.63;3.88;;;9.20;99.90;;;;;;5068378;28;20023;-61
2021/03/29 05:49:27;;;;;;;7.05;4.03;;;9.20;99.90;;;;;;5068365;28;20037;-62
2021/03/29 05:51:53;;;;;;;9.88;4.13;;;9.20;99.90;;;;;;5068211;28;20085;-62
2021/03/29 05:54:18;;;;;;;6.85;3.85;;;9.30;99.90;;;;;;5068342;28;20035;-62
2021/03/29 05:56:44;;;;;;;10.68;4.28;;;9.30;99.90;;;;;;5068163;28;20025;-62
2021/03/29 06:01:49;;;;;;;9.07;4.15;;;9.40;99.90;;;;;;5053136;28;20064;-62
2021/03/29 06:04:16;;;;;;;9.57;4.07;;;9.40;99.90;;;;;;5058150;28;20017;-62
2021/03/29 06:06:42;;;;;;;9.75;3.53;;;9.50;99.90;;;;;;5067646;28;20024;-63
2021/03/29 06:09:09;;;;;;;7.68;4.07;;;9.50;99.90;;;;;;5067613;28;20040;-63
2021/03/29 06:11:40;;;;;;;5.40;3.70;;;9.60;99.90;;;;;;5067734;28;20029;-62
2021/03/29 06:14:17;;;;;;;7.47;3.65;;;9.60;99.90;;;;;;5066783;28;20471;-61
2021/03/29 06:17:08;;;;;;;9.43;3.92;;;9.60;99.90;;;;;;5067846;28;20032;-62
2021/03/29 06:19:44;;;;;;;7.68;4.20;;;9.60;99.90;;;;;;5057932;28;20517;-61
2021/03/29 06:22:24;;;;;;;7.43;4.43;;;9.60;99.90;;;;;;5067588;28;20618;-62
2021/03/29 06:24:50;;;;;;;13.27;4.28;;;9.60;99.90;;;;;;5067825;28;20075;-63
2021/03/29 06:27:17;;;;;;;9.95;4.93;;;9.60;99.90;;;;;;5067380;28;20024;-61
2021/03/29 06:29:42;;;;;;;7.18;3.88;;;9.60;99.90;;;;;;5067553;28;20036;-62
2021/03/29 06:32:08;;;;;;;10.45;3.42;;;9.70;99.90;;;;;;5067293;28;20028;-63
2021/03/29 06:34:34;;;;;;;7.47;3.53;;;9.70;99.90;;;;;;5067509;28;20012;-60
2021/03/29 06:37:06;;;;;;;9.85;4.00;;;9.70;99.90;;;;;;5066490;28;20021;-65
2021/03/29 06:39:36;;;;;;;9.18;3.65;;;9.70;99.90;;;;;;5067436;28;20534;-62
2021/03/29 06:42:02;;;;;;;6.72;3.10;;;9.80;99.90;;;;;;5060245;28;20009;-63
2021/03/29 06:44:32;;;;;;;8.63;3.78;;;9.70;99.90;;;;;;5061366;28;20055;-63
2021/03/29 06:47:32;;;;;;;10.65;4.28;;;9.80;99.90;;;;;;5059809;28;20056;-62
2021/03/29 06:49:58;;;;;;;6.22;3.45;;;9.90;99.90;;;;;;5046726;28;20504;-63
2021/03/29 06:52:29;;;;;;;11.13;4.30;;;9.90;99.90;;;;;;5066278;28;20017;-63
2021/03/29 06:55:16;;;;;;;6.90;3.38;;;10.00;99.90;;;;;;5067561;28;20020;-62
2021/03/29 06:57:42;;;;;;;;;;;10.10;99.90;;;;;;5068116;28;20051;-63
2021/03/29 07:00:27;;;;;;;5.33;3.23;;;10.10;99.90;;;;;;5066054;28;19939;-62
2021/03/29 07:02:54;;;;;;;6.85;3.33;;;10.10;99.90;;;;;;5067378;28;20028;-62
2021/03/29 07:05:20;;;;;;;5.25;3.45;;;10.20;99.90;;;;;;5067626;28;20095;-64
2021/03/29 07:07:46;;;;;;;6.70;3.58;;;10.30;99.90;;;;;;5067109;28;20028;-62
2021/03/29 07:10:13;;;;;;;7.03;3.88;;;10.50;99.90;;;;;;5067867;28;20399;-63
2021/03/29 07:12:40;;;;;;;9.32;3.95;;;10.50;99.90;;;;;;5066120;28;20017;-62
2021/03/29 07:15:11;;;;;;;5.07;2.88;;;10.60;99.90;;;;;;5065818;28;20021;-63
2021/03/29 07:17:42;;;;;;;6.82;3.83;;;10.70;99.90;;;;;;5066069;28;20437;-62
2021/03/29 07:20:24;;;;;;;7.38;3.38;;;10.70;99.90;;;;;;5069929;28;20108;-62
2021/03/29 07:22:50;;;;;;;11.68;3.70;;;10.70;99.90;;;;;;5070586;28;20054;-63
2021/03/29 07:25:16;;;;;;;11.13;4.05;;;10.70;99.90;;;;;;5071908;28;20059;-63
2021/03/29 07:27:45;;;;;;;5.20;3.60;;;10.80;99.90;;;;;;5066752;28;20082;-63
2021/03/29 07:30:15;;;;;;;8.52;3.75;;;10.80;99.90;;;;;;5070603;28;20628;-64
2021/03/29 07:32:41;;;;;;;8.88;4.10;;;10.90;99.90;;;;;;5052694;28;20051;-63
2021/03/29 07:35:08;;;;;;;8.07;3.65;;;10.90;99.90;;;;;;5070971;28;20402;-63
2021/03/29 07:37:44;;;;;;;9.25;3.58;;;11.00;99.90;;;;;;5070456;28;20025;-63
2021/03/29 07:40:17;;;;;;;9.32;3.80;;;10.90;99.90;;;;;;5070517;28;20033;-64
2021/03/29 07:42:44;;;;;;;8.38;3.97;;;11.00;99.90;;;;;;5067348;28;20025;-62
2021/03/29 07:45:12;;;;;;;9.13;3.20;;;11.00;99.90;;;;;;5059189;28;20022;-62
2021/03/29 07:47:43;;;;;;;8.13;3.83;;;11.00;99.90;;;;;;5063521;28;20055;-61
2021/03/29 07:50:18;;;;;;;7.13;4.13;;;11.00;99.90;;;;;;5070448;28;20012;-63
2021/03/29 07:52:49;;;;;;;8.68;3.25;;;11.10;99.90;;;;;;5058418;28;20082;-63
2021/03/29 07:55:29;;;;;;;6.60;3.13;;;11.20;99.90;;;;;;5055242;28;20120;-63
2021/03/29 07:57:55;;;;;;;7.53;3.28;;;11.20;99.90;;;;;;5068390;28;20052;-63
2021/03/29 08:00:23;;;;;;;8.32;3.33;;;11.30;99.90;;;;;;5074658;28;20440;-61
2021/03/29 08:03:00;;;;;;;8.48;2.88;;;11.40;99.90;;;;;;5069647;28;20395;-62
2021/03/29 08:05:45;;;;;;;9.93;3.42;;;11.60;99.90;;;;;;5071015;28;20036;-62
2021/03/29 08:08:26;;;;;;;5.80;3.55;;;11.70;99.90;;;;;;5069535;28;20017;-63
2021/03/29 08:11:05;;;;;;;5.80;2.80;;;11.70;99.90;;;;;;5069737;28;20020;-60
2021/03/29 08:13:54;;;;;;;7.65;3.10;;;11.70;99.90;;;;;;5069254;28;20027;-63
2021/03/29 08:16:22;;;;;;;6.88;3.60;;;11.70;99.90;;;;;;5071142;28;20138;-62
2021/03/29 08:19:18;;;;;;;6.95;3.28;;;11.70;99.90;;;;;;5068901;28;20401;-61
2021/03/29 08:22:02;;;;;;;10.63;3.90;;;11.70;99.90;;;;;;5067833;28;20029;-62
2021/03/29 08:24:34;;;;;;;4.72;2.97;;;11.70;99.90;;;;;;5070451;28;20020;-62
2021/03/29 08:27:03;;;;;;;8.60;3.33;;;11.70;99.90;;;;;;5068171;28;20048;-63
2021/03/29 08:29:42;;;;;;;8.18;3.30;;;11.80;99.90;;;;;;5070045;28;20512;-63
2021/03/29 08:32:31;;;;;;;5.53;2.83;;;11.80;99.90;;;;;;5071067;28;20012;-63
2021/03/29 08:35:01;;;;;;;8.88;2.85;;;11.90;99.90;;;;;;5069132;28;20048;-64
2021/03/29 08:37:27;;;;;;;11.07;3.75;;;11.90;99.90;;;;;;5070459;28;20100;-63
2021/03/29 08:39:56;;;;;;;8.98;3.60;;;12.00;99.90;;;;;;5069995;28;20024;-63
2021/03/29 08:42:32;;;;;;;7.18;3.20;;;12.00;99.90;;;;;;5071142;28;20016;-62
2021/03/29 08:45:00;;;;;;;6.70;3.40;;;12.10;99.90;;;;;;5063845;28;20046;-63
2021/03/29 08:47:27;;;;;;;11.60;3.72;;;12.10;99.90;;;;;;5061467;28;20028;-62
2021/03/29 08:50:05;;;;;;;6.40;3.40;;;12.20;99.90;;;;;;5066470;28;20023;-63
2021/03/29 08:52:51;;;;;;;7.57;3.17;;;12.30;99.90;;;;;;5065835;28;20034;-63
2021/03/29 08:55:22;;;;;;;6.55;3.40;;;12.40;99.90;;;;;;5063593;28;20063;-63
2021/03/29 08:57:51;;;;;;;5.90;2.63;;;12.70;99.90;;;;;;5060708;28;20087;-61
2021/03/29 09:00:20;;;;;;;8.23;3.35;;;13.10;99.90;;;;;;5059961;28;20025;-64
2021/03/29 09:02:47;;;;;;;9.95;3.78;;;13.30;99.90;;;;;;5051672;28;20059;-63
2021/03/29 09:05:14;;;;;;;10.10;3.30;;;13.40;99.90;;;;;;5051987;28;20490;-63
2021/03/29 09:07:43;;;;;;;7.90;3.97;;;13.50;99.90;;;;;;5051373;28;20029;-63
2021/03/29 09:10:33;;;;;;;7.82;3.65;;;13.60;99.90;;;;;;5056713;28;20418;-64
2021/03/29 09:13:04;;;;;;;7.18;3.72;;;13.60;99.90;;;;;;5052786;28;20020;-63
2021/03/29 09:15:41;;;;;;;5.20;2.55;;;13.60;99.90;;;;;;5054504;28;20017;-61
2021/03/29 09:18:09;;;;;;;4.47;3.05;;;13.60;99.90;;;;;;5054050;28;20119;-63
2021/03/29 09:20:41;;;;;;;5.80;3.67;;;13.70;99.90;;;;;;5051713;28;20032;-62
2021/03/29 09:23:12;;;;;;;6.13;2.88;;;13.70;99.90;;;;;;5050785;28;20075;-63
2021/03/29 09:25:42;;;;;;;5.55;2.25;;;13.80;99.90;;;;;;5053779;28;20025;-63
2021/03/29 09:29:00;;;;;;;8.93;3.47;;;13.80;99.90;;;;;;5055122;28;20086;-63
2021/03/29 09:31:14;;;;;;;5.28;2.95;;;13.90;99.90;;;;;;5042819;28;20630;-64
2021/03/29 09:33:41;;;;;;;6.63;3.17;;;14.00;99.90;;;;;;5050982;28;20566;-60
2021/03/29 09:36:12;;;;;;;7.70;3.33;;;14.00;99.90;;;;;;5051050;28;21512;-63
2021/03/29 09:38:43;;;;;;;5.72;3.05;;;14.00;99.90;;;;;;5054694;28;20112;-63
2021/03/29 09:41:26;;;;;;;9.10;3.65;;;14.00;99.90;;;;;;5054248;28;20542;-63
2021/03/29 09:43:53;;;;;;;5.72;2.72;;;14.10;99.90;;;;;;5061380;28;20391;-62
2021/03/29 09:46:32;;;;;;;6.28;3.42;;;14.20;99.90;;;;;;5053508;28;20436;-62
2021/03/29 09:49:24;;;;;;;10.27;4.05;;;14.40;99.90;;;;;;5047682;28;20032;-62
2021/03/29 09:52:01;;;;;;;11.65;4.03;;;14.50;99.90;;;;;;5047145;28;20112;-65
2021/03/29 09:54:32;;;;;;;10.63;3.63;;;14.60;99.90;;;;;;5050248;28;20012;-64
2021/03/29 09:57:12;;;;;;;8.45;3.65;;;14.60;99.90;;;;;;5053312;28;20040;-61
2021/03/29 09:59:40;;;;;;;5.93;3.80;;;14.70;99.90;;;;;;5049330;28;20033;-63
2021/03/29 10:02:16;;;;;;;6.57;3.65;;;14.70;99.90;;;;;;5050214;28;20120;-62
2021/03/29 10:04:43;;;;;;;6.47;3.28;;;14.70;99.90;;;;;;5048976;28;20035;-61
2021/03/29 10:07:17;;;;;;;5.95;3.42;;;14.90;99.90;;;;;;5050871;28;20111;-60
2021/03/29 10:09:47;;;;;;;7.95;3.40;;;15.20;99.90;;;;;;5053857;28;20510;-63
2021/03/29 10:12:23;;;;;;;6.25;3.58;;;15.50;99.90;;;;;;5052186;28;20036;-63
2021/03/29 10:14:49;;;;;;;8.32;3.83;;;15.70;99.90;;;;;;5051541;28;20013;-61
2021/03/29 10:17:16;;;;;;;9.13;3.50;;;15.70;99.90;;;;;;5050005;28;20017;-62
2021/03/29 10:19:42;;;;;;;6.97;3.47;;;15.50;99.90;;;;;;5051867;28;20063;-63
2021/03/29 10:22:11;;;;;;;10.80;3.90;;;15.50;99.90;;;;;;5050213;28;20048;-62
2021/03/29 10:24:57;;;;;;;8.25;4.82;;;15.40;99.90;;;;;;5048862;28;20112;-64
2021/03/29 10:27:24;;;;;;;7.25;4.90;;;15.30;99.90;;;;;;5053118;28;20101;-62
2021/03/29 10:29:49;;;;;;;10.82;4.05;;;15.30;99.90;;;;;;5048651;28;20025;-64
2021/03/29 10:32:19;;;;;;;7.07;4.50;;;15.40;99.90;;;;;;5048546;28;20561;-64
2021/03/29 10:34:47;;;;;;;8.70;3.55;;;15.50;99.90;;;;;;5051491;28;20119;-62
2021/03/29 10:37:23;;;;;;;7.47;3.75;;;15.60;99.90;;;;;;5047219;28;20103;-61
2021/03/29 10:39:50;;;;;;;;;;;15.90;99.90;;;;;;5053499;28;20017;-62
2021/03/29 10:42:17;;;;;;;7.82;3.78;;;15.90;99.90;;;;;;5074677;28;20033;-60
2021/03/29 10:44:42;;;;;;;7.55;3.35;;;16.10;99.90;;;;;;5069716;28;20059;-63
2021/03/29 10:47:09;;;;;;;9.88;3.97;;;16.20;99.90;;;;;;5067753;28;20055;-62
2021/03/29 10:49:35;;;;;;;7.03;3.92;;;16.30;99.90;;;;;;5065033;28;20402;-63
2021/03/29 10:52:01;;;;;;;7.10;3.50;;;16.30;99.90;;;;;;5076131;28;20036;-64
2021/03/29 10:54:26;;;;;;;6.07;3.38;;;16.40;99.90;;;;;;5078548;28;20461;-62
2021/03/29 10:56:52;;;;;;;9.52;4.07;;;16.40;99.90;;;;;;5073586;28;20017;-62
2021/03/29 10:59:17;;;;;;;10.07;3.85;;;16.40;99.90;;;;;;5059325;28;20025;-61
2021/03/29 11:01:43;;;;;;;6.00;3.80;;;16.30;99.90;;;;;;5058660;28;20033;-62
2021/03/29 11:04:09;;;;;;;7.75;3.55;;;16.30;99.90;;;;;;5052990;28;20022;-62
2021/03/29 11:06:34;;;;;;;12.02;5.30;;;16.30;99.90;;;;;;5060860;28;20020;-62
2021/03/29 11:09:00;;;;;;;12.50;4.45;;;16.40;99.90;;;;;;5087079;23;20049;-60
2021/03/29 11:11:25;;;;;;;6.95;3.75;;;16.60;99.90;;;;;;5078142;28;20035;-60
2021/03/29 11:13:51;;;;;;;9.98;3.88;;;16.90;99.90;;;;;;5076718;28;20028;-60
2021/03/29 11:16:17;;;;;;;10.65;4.18;;;17.00;99.90;;;;;;5075287;28;20486;-60
2021/03/29 11:18:42;;;;;;;6.55;3.13;;;17.20;99.90;;;;;;5072701;28;20032;-60
2021/03/29 11:21:08;;;;;;;10.10;4.35;;;17.20;99.90;;;;;;5077112;28;20601;-61
2021/03/29 11:23:34;;;;;;;7.03;3.33;;;17.10;99.90;;;;;;5081832;28;20115;-59
2021/03/29 11:25:59;;;;;;;6.10;3.72;;;16.90;99.90;;;;;;5077367;28;20035;-60
2021/03/29 11:28:25;;;;;;;6.32;3.90;;;16.80;99.90;;;;;;5076689;28;20571;-58
2021/03/29 11:30:51;;;;;;;7.05;4.07;;;16.60;99.90;;;;;;5081490;28;20031;-59
2021/03/29 11:33:17;;;;;;;9.50;4.85;;;16.70;99.90;;;;;;5073861;28;20115;-59
2021/03/29 11:35:42;;;;;;;6.85;3.85;;;16.80;99.90;;;;;;5071434;28;20040;-60
2021/03/29 11:38:08;;;;;;;8.02;4.15;;;16.90;99.90;;;;;;5082394;28;20016;-59
2021/03/29 11:40:34;;;;;;;7.57;3.80;;;17.00;99.90;;;;;;5083962;28;20024;-60
2021/03/29 11:43:00;;;;;;;6.75;3.70;;;17.20;99.90;;;;;;5078373;28;20110;-60
2021/03/29 11:45:26;;;;;;;7.30;4.20;;;17.10;99.90;;;;;;5068629;28;20023;-60
2021/03/29 11:47:52;;;;;;;9.57;4.25;;;17.00;99.90;;;;;;5071199;28;20107;-60
2021/03/29 11:50:17;;;;;;;5.25;4.03;;;17.10;99.90;;;;;;5077183;28;20019;-61
2021/03/29 11:52:44;;;;;;;9.02;4.40;;;17.20;99.90;;;;;;5076196;28;20461;-60
2021/03/29 11:55:11;;;;;;;8.48;4.35;;;17.20;99.90;;;;;;5075126;28;20017;-58
2021/03/29 11:57:39;;;;;;;9.63;4.65;;;17.20;99.90;;;;;;5071748;28;20032;-58
2021/03/29 12:00:14;;;;;;;6.93;4.28;;;17.30;99.90;;;;;;5082181;28;20021;-60
2021/03/29 12:02:46;;;;;;;5.20;4.07;;;17.30;99.90;;;;;;5065794;28;20107;-57
2021/03/29 12:05:18;;;;;;;8.25;3.53;;;17.30;99.90;;;;;;5077388;28;20100;-59
2021/03/29 12:08:04;;;;;;;5.28;4.00;;;17.20;99.90;;;;;;5073278;28;20104;-59
2021/03/29 12:13:16;;;;;;;5.60;4.15;;;17.20;99.90;;;;;;5084121;28;20113;-59
2021/03/29 12:15:47;;;;;;;7.35;4.40;;;17.20;99.90;;;;;;5071048;28;20678;-60
2021/03/29 12:18:15;;;;;;;7.22;3.83;;;17.30;99.90;;;;;;5075989;28;20036;-59
2021/03/29 12:20:40;;;;;;;9.13;4.28;;;17.30;99.90;;;;;;5076009;28;20747;-59
2021/03/29 12:23:10;;;;;;;7.40;4.63;;;17.40;99.90;;;;;;5087481;28;20131;-59
2021/03/29 12:25:36;;;;;;;12.57;6.55;;;17.50;99.90;;;;;;5080400;28;20113;-60
2021/03/29 12:28:02;;;;;;;6.68;4.72;;;17.60;99.90;;;;;;5071082;28;20032;-58
2021/03/29 12:30:28;;;;;;;6.90;4.40;;;17.70;99.90;;;;;;5073932;28;20032;-59
2021/03/29 12:32:54;;;;;;;8.20;4.70;;;17.70;99.90;;;;;;5069814;28;20074;-58
2021/03/29 12:35:22;;;;;;;7.07;4.13;;;17.80;99.90;;;;;;5067136;28;20087;-59
2021/03/29 12:37:53;;;;;;;8.10;4.20;;;17.70;99.90;;;;;;5069674;28;20035;-58
2021/03/29 12:40:23;;;;;;;7.63;3.83;;;17.90;99.90;;;;;;5069602;28;20029;-58
2021/03/29 12:45:23;;;;;;;12.07;3.72;;;18.10;99.90;;;;;;5067091;28;20115;-59
2021/03/29 12:47:49;;;;;;;6.07;4.70;;;18.20;99.90;;;;;;5065697;28;20029;-59
2021/03/29 12:50:17;;;;;;;6.60;3.88;;;18.20;99.90;;;;;;5071090;28;20066;-59
2021/03/29 12:52:44;;;;;;;6.65;4.30;;;18.20;99.90;;;;;;5081196;28;20020;-60
2021/03/29 12:55:14;;;;;;;6.90;5.07;;;18.10;99.90;;;;;;5073232;28;20470;-61
2021/03/29 12:57:40;;;;;;;8.50;4.72;;;17.90;99.90;;;;;;5067930;28;20548;-56
2021/03/29 13:00:08;;;;;;;6.68;4.65;;;17.80;99.90;;;;;;5079386;28;20071;-58
2021/03/29 13:02:34;;;;;;;11.70;4.60;;;17.90;99.90;;;;;;5070703;28;20027;-60
2021/03/29 13:05:00;;;;;;;7.88;4.47;;;17.80;99.90;;;;;;5077839;28;20024;-60
2021/03/29 13:07:34;;;;;;;5.80;5.00;;;17.80;99.90;;;;;;5070226;28;20043;-59
2021/03/29 13:10:09;;;;;;;6.80;4.47;;;17.80;99.90;;;;;;5067507;28;20170;-60